createdAt,value
2018-12-10T00:00:25.679Z,5.00
2018-12-10T00:02:58.856Z,5.60
2018-12-10T00:05:26.372Z,5.60
2018-12-10T00:07:53.867Z,5.60
2018-12-10T00:10:21.363Z,5.20
2018-12-10T00:12:48.870Z,5.50
2018-12-10T00:15:16.376Z,5.50
2018-12-10T00:17:43.895Z,5.50
2018-12-10T00:20:11.408Z,5.50
2018-12-10T00:22:38.891Z,5.50
2018-12-10T00:25:06.368Z,5.60
2018-12-10T00:27:33.868Z,5.10
2018-12-10T00:30:01.380Z,5.30
2018-12-10T00:32:28.879Z,5.50
2018-12-10T00:34:56.371Z,5.40
2018-12-10T00:37:23.856Z,5.50
2018-12-10T00:39:51.350Z,5.60
2018-12-10T00:42:18.924Z,5.40
2018-12-10T00:44:46.411Z,5.50
2018-12-10T00:47:13.900Z,5.40
2018-12-10T00:49:42.064Z,5.50
2018-12-10T00:52:09.566Z,5.60
2018-12-10T00:54:37.066Z,5.60
2018-12-10T00:57:04.553Z,5.50
2018-12-10T00:59:32.052Z,5.70
2018-12-10T01:01:59.544Z,5.90
2018-12-10T01:04:27.052Z,5.60
2018-12-10T01:06:54.576Z,5.60
2018-12-10T01:09:22.137Z,5.50
2018-12-10T01:11:49.632Z,5.80
2018-12-10T01:14:17.252Z,5.50
2018-12-10T01:16:44.838Z,5.40
2018-12-10T01:19:12.331Z,5.90
2018-12-10T01:24:07.331Z,5.80
2018-12-10T01:26:35.643Z,5.50
2018-12-10T01:29:03.353Z,5.60
2018-12-10T01:31:30.870Z,5.50
2018-12-10T01:33:58.367Z,5.60
2018-12-10T01:36:25.863Z,5.50
2018-12-10T01:38:53.359Z,5.40
2018-12-10T01:41:20.852Z,6.00
2018-12-10T01:43:48.359Z,5.60
2018-12-10T01:46:15.872Z,5.50
2018-12-10T01:48:43.382Z,5.40
2018-12-10T01:51:10.887Z,5.40
2018-12-10T01:53:38.386Z,5.30
2018-12-10T01:56:05.881Z,5.20
2018-12-10T01:58:33.371Z,5.10
2018-12-10T02:01:00.876Z,5.20
2018-12-10T02:03:28.623Z,5.10
2018-12-10T02:05:56.417Z,5.20
2018-12-10T02:08:23.912Z,5.10
2018-12-10T02:10:51.400Z,4.50
2018-12-10T02:13:18.896Z,4.30
2018-12-10T02:15:46.371Z,3.20
2018-12-10T02:18:13.865Z,3.20
2018-12-10T02:20:41.358Z,3.00
2018-12-10T02:23:08.856Z,3.00
2018-12-10T02:25:36.352Z,3.10
2018-12-10T02:28:03.839Z,3.10
2018-12-10T02:30:31.342Z,3.20
2018-12-10T02:32:58.902Z,3.30
2018-12-10T02:35:26.388Z,3.20
2018-12-10T02:37:53.881Z,3.30
2018-12-10T02:40:21.371Z,3.40
2018-12-10T02:42:48.866Z,3.40
2018-12-10T02:45:16.364Z,3.50
2018-12-10T02:47:43.866Z,3.60
2018-12-10T02:50:11.353Z,3.70
2018-12-10T02:52:38.850Z,3.80
2018-12-10T02:55:06.332Z,3.90
2018-12-10T02:57:33.831Z,4.00
2018-12-10T03:00:01.325Z,4.30
2018-12-10T03:02:28.908Z,4.30
2018-12-10T03:04:56.392Z,4.40
2018-12-10T03:07:23.888Z,4.40
2018-12-10T03:09:51.376Z,4.50
2018-12-10T03:12:18.961Z,4.50
2018-12-10T03:14:46.462Z,4.50
2018-12-10T03:17:13.964Z,4.60
2018-12-10T03:19:41.456Z,4.40
2018-12-10T03:22:08.958Z,4.50
2018-12-10T03:24:36.446Z,4.00
2018-12-10T03:27:03.940Z,4.30
2018-12-10T03:29:31.434Z,4.40
2018-12-10T03:31:58.930Z,4.50
2018-12-10T03:34:26.424Z,4.30
2018-12-10T03:36:53.924Z,4.30
2018-12-10T03:39:21.432Z,4.50
2018-12-10T03:41:48.906Z,4.20
2018-12-10T03:44:16.401Z,4.30
2018-12-10T03:49:11.392Z,4.30
2018-12-10T03:51:38.978Z,4.00
2018-12-10T03:54:06.456Z,4.20
2018-12-10T03:56:33.955Z,4.20
2018-12-10T03:59:01.450Z,4.30
2018-12-10T04:01:28.950Z,4.50
2018-12-10T04:03:56.439Z,4.80
2018-12-10T04:06:23.992Z,4.50
2018-12-10T04:08:51.484Z,4.50
2018-12-10T04:11:18.978Z,4.60
2018-12-10T04:13:46.471Z,4.60
2018-12-10T04:16:14.037Z,4.60
2018-12-10T04:18:41.662Z,4.60
2018-12-10T04:21:09.257Z,4.60
2018-12-10T04:23:36.792Z,4.60
2018-12-10T04:26:04.285Z,4.50
2018-12-10T04:28:31.776Z,4.50
2018-12-10T04:30:59.269Z,4.30
2018-12-10T04:33:26.767Z,4.50
2018-12-10T04:35:54.263Z,4.50
2018-12-10T04:38:21.753Z,4.50
2018-12-10T04:40:49.243Z,4.50
2018-12-10T04:43:16.736Z,4.40
2018-12-10T04:45:44.219Z,4.20
2018-12-10T04:48:11.708Z,4.20
2018-12-10T04:50:39.208Z,4.20
2018-12-10T04:53:06.710Z,4.20
2018-12-10T04:55:34.222Z,4.10
2018-12-10T04:58:01.930Z,4.20
2018-12-10T05:00:29.419Z,3.70
2018-12-10T05:02:56.934Z,4.20
2018-12-10T05:05:24.430Z,4.20
2018-12-10T05:07:51.919Z,4.40
2018-12-10T05:10:19.422Z,4.30
2018-12-10T05:12:46.914Z,4.30
2018-12-10T05:15:15.237Z,4.20
2018-12-10T05:17:44.202Z,4.40
2018-12-10T05:20:12.123Z,4.40
2018-12-10T05:22:39.618Z,4.40
2018-12-10T05:25:07.946Z,4.40
2018-12-10T05:27:35.451Z,4.40
2018-12-10T05:30:03.130Z,4.40
2018-12-10T05:32:31.186Z,4.10
2018-12-10T05:34:58.713Z,4.30
2018-12-10T05:37:26.236Z,4.40
2018-12-10T05:39:53.750Z,4.30
2018-12-10T05:42:21.236Z,4.30
2018-12-10T05:44:48.743Z,4.20
2018-12-10T05:47:16.255Z,4.20
2018-12-10T05:49:43.752Z,4.20
2018-12-10T05:52:11.287Z,3.70
2018-12-10T05:54:39.130Z,4.10
2018-12-10T05:57:06.629Z,4.10
2018-12-10T05:59:34.132Z,4.10
2018-12-10T06:02:01.651Z,4.10
2018-12-10T06:04:29.147Z,4.10
2018-12-10T06:06:57.177Z,4.10
2018-12-10T06:09:24.696Z,4.10
2018-12-10T06:11:52.196Z,4.10
2018-12-10T06:14:19.723Z,4.10
2018-12-10T06:16:47.230Z,3.80
2018-12-10T06:19:14.789Z,4.10
2018-12-10T06:21:42.288Z,4.00
2018-12-10T06:26:37.316Z,4.20
2018-12-10T06:29:04.809Z,4.10
2018-12-10T06:31:32.315Z,4.00
2018-12-10T06:33:59.838Z,4.10
2018-12-10T06:36:27.316Z,4.10
2018-12-10T06:38:54.802Z,4.10
2018-12-10T06:41:22.296Z,4.10
2018-12-10T06:43:49.794Z,4.40
2018-12-10T06:46:17.295Z,4.10
2018-12-10T06:48:44.792Z,4.10
2018-12-10T06:51:12.288Z,4.10
2018-12-10T06:53:39.823Z,4.10
2018-12-10T06:56:07.308Z,4.10
2018-12-10T06:58:34.810Z,4.00
2018-12-10T07:01:02.313Z,4.10
2018-12-10T07:03:29.825Z,4.00
2018-12-10T07:05:57.314Z,4.30
2018-12-10T07:08:24.814Z,4.10
2018-12-10T07:10:52.308Z,4.00
2018-12-10T07:13:19.802Z,4.00
2018-12-10T07:15:47.288Z,4.00
2018-12-10T07:18:20.732Z,4.20
2018-12-10T07:20:48.218Z,3.90
2018-12-10T07:23:15.714Z,3.80
2018-12-10T07:25:43.215Z,3.80
2018-12-10T07:28:10.704Z,3.80
2018-12-10T07:30:41.468Z,3.70
2018-12-10T07:33:07.710Z,3.60
2018-12-10T07:35:35.478Z,3.60
2018-12-10T07:38:02.988Z,3.40
2018-12-10T07:40:30.588Z,3.50
2018-12-10T07:42:58.082Z,3.40
2018-12-10T07:45:25.572Z,3.50
2018-12-10T07:47:53.080Z,3.40
2018-12-10T07:50:20.575Z,2.90
2018-12-10T07:52:48.152Z,3.30
2018-12-10T07:55:15.660Z,3.20
2018-12-10T07:57:43.164Z,2.90
2018-12-10T08:00:10.651Z,3.10
2018-12-10T08:02:38.167Z,3.10
2018-12-10T08:05:12.281Z,3.10
2018-12-10T08:07:35.492Z,2.90
2018-12-10T08:10:03.056Z,3.00
2018-12-10T08:12:30.544Z,3.00
2018-12-10T08:14:58.044Z,3.70
2018-12-10T08:17:25.536Z,2.80
2018-12-10T08:19:53.037Z,2.80
2018-12-10T08:22:20.537Z,2.90
2018-12-10T08:24:48.115Z,3.30
2018-12-10T08:27:15.629Z,3.00
2018-12-10T08:29:43.124Z,3.00
2018-12-10T08:32:10.616Z,3.00
2018-12-10T08:34:41.482Z,3.00
2018-12-10T08:37:07.700Z,2.90
2018-12-10T08:39:35.193Z,3.10
2018-12-10T08:42:02.686Z,3.00
2018-12-10T08:44:30.225Z,3.10
2018-12-10T08:46:57.792Z,3.00
2018-12-10T08:49:25.300Z,3.00
2018-12-10T08:51:53.138Z,3.00
2018-12-10T08:54:20.620Z,3.10
2018-12-10T08:56:48.119Z,3.00
2018-12-10T08:59:15.627Z,3.10
2018-12-10T09:01:43.130Z,3.20
2018-12-10T09:06:38.435Z,3.30
2018-12-10T09:09:05.944Z,3.30
2018-12-10T09:11:33.478Z,3.40
2018-12-10T09:14:00.968Z,3.50
2018-12-10T09:16:28.524Z,3.60
2018-12-10T09:18:56.025Z,3.60
2018-12-10T09:21:23.588Z,3.70
2018-12-10T09:23:51.268Z,3.70
2018-12-10T09:26:18.792Z,3.80
2018-12-10T09:28:46.285Z,4.10
2018-12-10T09:31:13.948Z,3.90
2018-12-10T09:33:41.795Z,3.90
2018-12-10T09:38:36.796Z,4.20
2018-12-10T09:41:04.312Z,4.00
2018-12-10T09:43:31.808Z,4.10
2018-12-10T09:45:59.332Z,4.10
2018-12-10T09:48:26.890Z,4.10
2018-12-10T09:50:54.372Z,4.10
2018-12-10T09:53:21.872Z,4.10
2018-12-10T09:55:49.426Z,4.40
2018-12-10T09:58:17.796Z,4.20
2018-12-10T10:00:45.286Z,4.10
2018-12-10T10:03:12.780Z,4.20
2018-12-10T10:05:40.280Z,4.30
2018-12-10T10:08:07.948Z,4.30
2018-12-10T10:10:35.462Z,4.30
2018-12-10T10:13:02.944Z,4.30
2018-12-10T10:15:30.443Z,4.30
2018-12-10T10:17:58.977Z,4.20
2018-12-10T10:20:26.719Z,4.20
2018-12-10T10:22:54.207Z,4.20
2018-12-10T10:25:21.706Z,4.20
2018-12-10T10:27:49.201Z,4.20
2018-12-10T10:30:16.763Z,4.30
2018-12-10T10:32:44.251Z,4.30
2018-12-10T10:35:11.737Z,4.30
2018-12-10T10:37:39.239Z,4.40
2018-12-10T10:40:07.184Z,5.00
2018-12-10T10:42:34.685Z,4.40
2018-12-10T10:45:02.195Z,4.40
2018-12-10T10:47:29.690Z,4.50
2018-12-10T10:49:57.187Z,4.60
2018-12-10T10:52:24.805Z,4.60
2018-12-10T10:54:52.299Z,4.50
2018-12-10T10:57:19.796Z,4.60
2018-12-10T10:59:47.297Z,4.60
2018-12-10T11:02:19.591Z,4.40
2018-12-10T11:04:47.682Z,4.60
2018-12-10T11:07:15.186Z,4.60
2018-12-10T11:09:42.680Z,4.90
2018-12-10T11:12:10.177Z,4.90
2018-12-10T11:14:37.801Z,5.20
2018-12-10T11:17:05.377Z,5.00
2018-12-10T11:22:00.388Z,5.00
2018-12-10T11:24:27.887Z,5.00
2018-12-10T11:26:55.385Z,4.90
2018-12-10T11:29:22.887Z,4.40
2018-12-10T11:31:50.384Z,4.60
2018-12-10T11:36:45.375Z,4.30
2018-12-10T11:39:12.871Z,3.60
2018-12-10T11:41:40.445Z,3.90
2018-12-10T11:44:07.949Z,3.90
2018-12-10T11:46:35.584Z,3.90
2018-12-10T11:49:03.076Z,4.00
2018-12-10T11:51:30.642Z,4.10
2018-12-10T11:53:58.156Z,4.30
2018-12-10T11:56:25.649Z,4.20
2018-12-10T11:58:53.204Z,4.20
2018-12-10T12:01:20.712Z,4.40
2018-12-10T12:03:48.219Z,4.40
2018-12-10T12:06:15.702Z,4.30
2018-12-10T12:08:43.959Z,4.40
2018-12-10T12:11:11.446Z,4.40
2018-12-10T12:13:38.935Z,4.40
2018-12-10T12:16:06.482Z,4.60
2018-12-10T12:18:33.974Z,4.50
2018-12-10T12:21:01.485Z,4.70
2018-12-10T12:23:28.978Z,5.00
2018-12-10T12:25:56.478Z,4.50
2018-12-10T12:28:23.962Z,4.90
2018-12-10T12:30:51.452Z,4.90
2018-12-10T12:33:18.948Z,5.10
2018-12-10T12:35:46.430Z,5.20
2018-12-10T12:38:13.936Z,5.20
2018-12-10T12:40:41.450Z,4.90
2018-12-10T12:43:15.825Z,5.00
2018-12-10T12:45:38.445Z,4.80
2018-12-10T12:48:05.949Z,4.90
2018-12-10T12:50:33.461Z,4.60
2018-12-10T12:53:00.962Z,4.50
2018-12-10T12:55:28.456Z,4.20
2018-12-10T12:57:55.954Z,4.10
2018-12-10T13:00:27.068Z,3.80
2018-12-10T13:02:52.942Z,3.80
2018-12-10T13:05:20.433Z,3.70
2018-12-10T13:07:47.936Z,3.30
2018-12-10T13:10:15.433Z,3.50
2018-12-10T13:12:42.932Z,3.70
2018-12-10T13:15:10.439Z,3.80
2018-12-10T13:17:37.936Z,3.80
2018-12-10T13:20:05.820Z,3.80
2018-12-10T13:22:33.344Z,4.00
2018-12-10T13:25:00.834Z,4.10
2018-12-10T13:27:28.322Z,4.70
2018-12-10T13:29:55.828Z,4.60
2018-12-10T13:32:23.349Z,4.60
2018-12-10T13:37:18.340Z,4.60
2018-12-10T13:39:45.855Z,4.50
2018-12-10T13:42:13.356Z,4.60
2018-12-10T13:44:40.847Z,4.30
2018-12-10T13:47:08.361Z,4.20
2018-12-10T13:49:35.861Z,4.20
2018-12-10T13:52:08.997Z,3.90
2018-12-10T13:54:33.248Z,4.00
2018-12-10T13:57:00.731Z,3.80
2018-12-10T13:59:28.232Z,3.70
2018-12-10T14:01:55.733Z,3.70
2018-12-10T14:04:24.697Z,3.60
2018-12-10T14:06:52.198Z,3.50
2018-12-10T14:09:19.702Z,3.40
2018-12-10T14:11:47.374Z,3.10
2018-12-10T14:14:15.009Z,3.20
2018-12-10T14:16:42.526Z,3.30
2018-12-10T14:19:10.036Z,3.30
2018-12-10T14:21:37.541Z,3.20
2018-12-10T14:24:05.117Z,3.30
2018-12-10T14:26:32.694Z,3.00
2018-12-10T14:29:00.201Z,3.70
2018-12-10T14:31:28.043Z,3.50
2018-12-10T14:33:57.621Z,3.60
2018-12-10T14:36:25.187Z,3.60
2018-12-10T14:38:52.703Z,3.60
2018-12-10T14:41:20.639Z,3.60
2018-12-10T14:43:48.139Z,3.40
2018-12-10T14:46:15.635Z,3.80
2018-12-10T14:48:43.121Z,3.60
2018-12-10T14:51:10.617Z,3.70
2018-12-10T14:53:38.114Z,3.70
2018-12-10T14:56:05.619Z,3.80
2018-12-10T14:58:33.141Z,3.70
2018-12-10T15:01:00.635Z,4.00
2018-12-10T15:03:28.152Z,3.90
2018-12-10T15:05:55.661Z,3.70
2018-12-10T15:08:23.181Z,3.70
2018-12-10T15:10:50.691Z,3.80
2018-12-10T15:13:18.185Z,5.10
2018-12-10T15:15:45.686Z,3.70
2018-12-10T15:18:13.177Z,3.90
2018-12-10T15:23:08.179Z,3.80
2018-12-10T15:25:35.695Z,3.80
2018-12-10T15:28:03.200Z,4.00
2018-12-10T15:30:30.810Z,4.00
2018-12-10T15:32:58.322Z,3.80
2018-12-10T15:35:25.851Z,4.00
2018-12-10T15:37:53.448Z,3.40
2018-12-10T15:40:21.056Z,4.00
2018-12-10T15:42:48.570Z,4.00
2018-12-10T15:45:16.111Z,3.60
2018-12-10T15:47:43.625Z,3.80
2018-12-10T15:50:11.157Z,3.80
2018-12-10T15:52:38.680Z,3.80
2018-12-10T15:55:06.538Z,3.80
2018-12-10T15:57:34.071Z,4.20
2018-12-10T16:00:01.554Z,3.90
2018-12-10T16:02:29.057Z,4.00
2018-12-10T16:04:56.568Z,3.80
2018-12-10T16:07:24.085Z,3.70
2018-12-10T16:09:51.596Z,3.70
2018-12-10T16:12:19.312Z,3.60
2018-12-10T16:17:14.362Z,3.60
2018-12-10T16:19:41.875Z,3.30
2018-12-10T16:22:09.391Z,3.50
2018-12-10T16:24:36.906Z,3.40
2018-12-10T16:27:04.525Z,3.30
2018-12-10T16:29:32.139Z,3.10
2018-12-10T16:32:00.295Z,3.10
2018-12-10T16:34:27.807Z,3.20
2018-12-10T16:36:55.319Z,3.20
2018-12-10T16:39:22.827Z,3.30
2018-12-10T16:41:50.345Z,3.30
2018-12-10T16:46:45.368Z,3.30
2018-12-10T16:49:12.899Z,3.50
2018-12-10T16:51:40.449Z,3.50
2018-12-10T16:54:07.990Z,3.30
2018-12-10T16:56:35.512Z,3.20
2018-12-10T16:59:03.096Z,3.30
2018-12-10T17:01:30.616Z,3.10
2018-12-10T17:06:25.659Z,3.40
2018-12-10T17:08:53.203Z,3.30
2018-12-10T17:11:20.780Z,3.40
2018-12-10T17:13:48.311Z,3.40
2018-12-10T17:16:15.816Z,3.40
2018-12-10T17:18:43.324Z,3.40
2018-12-10T17:21:10.877Z,3.20
2018-12-10T17:23:39.895Z,3.50
2018-12-10T17:26:07.544Z,3.10
2018-12-10T17:28:35.071Z,3.20
2018-12-10T17:31:02.606Z,3.10
2018-12-10T17:33:30.679Z,3.30
2018-12-10T17:35:59.744Z,3.50
2018-12-10T17:38:28.556Z,3.20
2018-12-10T17:40:56.103Z,3.20
2018-12-10T17:43:23.664Z,3.20
2018-12-10T17:48:19.506Z,3.50
2018-12-10T17:50:47.123Z,3.20
2018-12-10T17:53:15.075Z,3.20
2018-12-10T17:55:43.566Z,3.40
2018-12-10T17:58:11.616Z,3.30
2018-12-10T18:00:39.122Z,3.30
2018-12-10T18:03:06.673Z,3.20
2018-12-10T18:05:34.873Z,3.20
2018-12-10T18:08:02.407Z,3.30
2018-12-10T18:10:32.809Z,3.10
2018-12-10T18:15:27.893Z,3.50
2018-12-10T18:17:55.518Z,3.20
2018-12-10T18:20:23.967Z,3.70
2018-12-10T18:22:53.783Z,3.40
2018-12-10T18:25:21.313Z,3.40
2018-12-10T18:27:48.933Z,3.10
2018-12-10T18:30:16.475Z,3.30
2018-12-10T18:32:44.857Z,3.30
2018-12-10T18:35:13.739Z,3.20
2018-12-10T18:37:42.418Z,3.10
2018-12-10T18:42:38.727Z,3.20
2018-12-10T18:45:10.624Z,3.20
2018-12-10T18:47:38.178Z,3.70
2018-12-10T18:50:07.478Z,3.20
2018-12-10T18:55:06.541Z,2.90
2018-12-10T18:57:34.066Z,2.80
2018-12-10T19:00:03.650Z,2.70
2018-12-10T19:02:31.185Z,2.80
2018-12-10T19:05:01.704Z,2.90
2018-12-10T19:09:59.570Z,2.40
2018-12-10T19:12:27.779Z,2.50
2018-12-10T19:15:01.305Z,2.60
2018-12-10T19:17:28.939Z,2.60
2018-12-10T19:19:58.082Z,2.70
2018-12-10T19:22:28.419Z,2.50
2018-12-10T19:27:25.026Z,2.40
2018-12-10T19:29:53.750Z,2.20
2018-12-10T19:32:22.315Z,2.70
2018-12-10T19:34:50.153Z,2.70
2018-12-10T19:37:18.925Z,3.00
2018-12-10T19:39:47.053Z,2.70
2018-12-10T19:42:15.524Z,2.70
2018-12-10T19:44:43.622Z,3.00
2018-12-10T19:47:14.875Z,2.70
2018-12-10T19:49:47.223Z,2.60
2018-12-10T19:54:47.188Z,3.40
2018-12-10T19:57:15.714Z,2.90
2018-12-10T19:59:44.096Z,3.00
2018-12-10T20:02:13.165Z,2.50
2018-12-10T20:04:40.714Z,2.40
2018-12-10T20:07:10.792Z,2.40
2018-12-10T20:09:38.934Z,2.90
2018-12-10T20:12:08.257Z,2.90
2018-12-10T20:14:35.872Z,2.80
2018-12-10T20:17:09.659Z,2.90
2018-12-10T20:19:40.940Z,2.80
2018-12-10T20:24:43.556Z,2.80
2018-12-10T20:27:12.589Z,2.80
2018-12-10T20:29:42.296Z,3.30
2018-12-10T20:32:11.270Z,2.90
2018-12-10T20:34:40.259Z,2.80
2018-12-10T20:37:07.812Z,3.00
2018-12-10T20:39:36.026Z,3.20
2018-12-10T20:42:04.533Z,3.20
2018-12-10T20:44:32.897Z,3.50
2018-12-10T20:47:02.704Z,3.00
2018-12-10T20:52:00.762Z,3.30
2018-12-10T20:54:28.354Z,3.20
2018-12-10T20:56:57.426Z,3.00
2018-12-10T20:59:25.498Z,3.20
2018-12-10T21:01:57.349Z,2.90
2018-12-10T21:04:25.306Z,3.00
2018-12-10T21:06:54.458Z,3.00
2018-12-10T21:09:22.091Z,2.90
2018-12-10T21:11:49.612Z,2.80
2018-12-10T21:14:17.202Z,3.20
2018-12-10T21:19:12.367Z,3.20
2018-12-10T21:21:40.438Z,3.00
2018-12-10T21:24:08.005Z,3.00
2018-12-10T21:26:36.269Z,2.90
2018-12-10T21:29:04.656Z,2.70
2018-12-10T21:31:32.189Z,2.90
2018-12-10T21:34:00.454Z,2.50
2018-12-10T21:36:28.100Z,2.20
2018-12-10T21:38:55.638Z,2.50
2018-12-10T21:41:23.195Z,2.60
2018-12-10T21:43:50.948Z,2.50
2018-12-10T21:46:21.416Z,2.20
2018-12-10T21:48:49.773Z,2.10
2018-12-10T21:51:18.183Z,1.80
2018-12-10T21:53:47.196Z,1.90
2018-12-10T21:56:14.763Z,1.90
2018-12-10T21:58:42.592Z,1.90
2018-12-10T22:01:10.917Z,2.00
2018-12-10T22:03:38.430Z,2.30
2018-12-10T22:06:05.916Z,2.50
2018-12-10T22:08:33.444Z,2.50
2018-12-10T22:11:00.938Z,2.50
2018-12-10T22:13:28.443Z,2.70
2018-12-10T22:15:55.954Z,2.50
2018-12-10T22:18:23.547Z,2.60
2018-12-10T22:20:51.396Z,2.70
2018-12-10T22:23:18.932Z,3.10
2018-12-10T22:25:47.128Z,2.70
2018-12-10T22:28:14.656Z,2.80
2018-12-10T22:30:42.139Z,3.10
2018-12-10T22:33:09.639Z,2.90
2018-12-10T22:35:37.533Z,2.90
2018-12-10T22:38:05.039Z,2.80
2018-12-10T22:40:32.548Z,2.60
2018-12-10T22:43:00.042Z,2.90
2018-12-10T22:45:27.535Z,2.90
2018-12-10T22:47:55.069Z,2.90
2018-12-10T22:50:22.570Z,2.90
2018-12-10T22:52:50.074Z,2.80
2018-12-10T22:55:17.566Z,2.90
2018-12-10T22:57:45.066Z,2.50
2018-12-10T23:02:40.131Z,3.00
2018-12-10T23:05:07.698Z,2.90
2018-12-10T23:07:35.200Z,2.90
2018-12-10T23:10:03.384Z,2.80
2018-12-10T23:12:30.889Z,2.80
2018-12-10T23:14:58.398Z,2.80
2018-12-10T23:17:25.878Z,2.70
2018-12-10T23:19:53.363Z,2.80
2018-12-10T23:22:20.848Z,2.70
2018-12-10T23:24:48.341Z,2.90
2018-12-10T23:27:15.829Z,2.60
2018-12-10T23:29:43.340Z,2.90
2018-12-10T23:32:10.837Z,2.80
2018-12-10T23:34:38.335Z,2.80
2018-12-10T23:37:05.901Z,2.60
2018-12-10T23:39:33.389Z,2.90
2018-12-10T23:42:00.867Z,2.90
2018-12-10T23:44:34.001Z,2.70
2018-12-10T23:47:01.485Z,2.60
2018-12-10T23:49:28.973Z,2.80
2018-12-10T23:51:56.465Z,2.70
2018-12-10T23:54:23.963Z,2.80
2018-12-10T23:56:51.455Z,2.70
2018-12-10T23:59:18.941Z,2.60
